Time;durP1;ratioP1;P1;durP2;ratioP2;P2;SDS_P1;SDS_P2;PMS_P1;PMS_P2;Temp;Humidity;BMP_temperature;BMP_pressure;BME280_temperature;BME280_humidity;BME280_pressure;Samples;Min_cycle;Max_cycle;Signal;HPM_P1;HPM_P2
2023/04/08 00:00:02;;;;;;;0.10;0.10;;;;;;;;;;5063730;28;20536;-63
2023/04/08 00:02:30;;;;;;;0.20;0.20;;;;;;;;;;5068732;28;20485;-63
2023/04/08 00:04:56;;;;;;;0.20;0.20;;;;;;;;;;5063702;28;20275;-63
2023/04/08 00:07:23;;;;;;;0.10;0.10;;;;;;;;;;5068682;28;20262;-63
2023/04/08 00:09:49;;;;;;;0.10;0.10;;;;;;;;;;5063652;28;20522;-63
2023/04/08 00:12:16;;;;;;;0.10;0.10;;;;;;;;;;5068668;28;20247;-63
2023/04/08 00:14:42;;;;;;;0.20;0.20;;;;;;;;;;5065783;28;20238;-63
2023/04/08 00:17:09;;;;;;;0.10;0.10;;;;;;;;;;5072024;28;20336;-63
2023/04/08 00:19:36;;;;;;;0.10;0.10;;;;;;;;;;5067964;28;20238;-63
2023/04/08 00:22:03;;;;;;;0.17;0.17;;;;;;;;;;5071532;28;20461;-63
2023/04/08 00:24:29;;;;;;;0.10;0.10;;;;;;;;;;5068352;28;20228;-63
2023/04/08 00:26:56;;;;;;;0.10;0.10;;;;;;;;;;5070593;28;20449;-63
2023/04/08 00:29:22;;;;;;;0.10;0.10;;;;;;;;;;5069229;28;20209;-63
2023/04/08 00:31:49;;;;;;;0.20;0.20;;;;;;;;;;5069424;28;20260;-63
2023/04/08 00:34:15;;;;;;;0.10;0.10;;;;;;;;;;5069962;28;20227;-63
2023/04/08 00:36:43;;;;;;;0.10;0.10;;;;;;;;;;5068537;28;20312;-63
2023/04/08 00:39:10;;;;;;;0.10;0.10;;;;;;;;;;5070553;28;20274;-63
2023/04/08 00:41:36;;;;;;;0.10;0.10;;;;;;;;;;5067576;28;20236;-63
2023/04/08 00:44:02;;;;;;;0.10;0.10;;;;;;;;;;5071421;28;20502;-63
2023/04/08 00:46:31;;;;;;;0.10;0.10;;;;;;;;;;5066469;28;20473;-62
2023/04/08 00:48:57;;;;;;;0.10;0.10;;;;;;;;;;5071754;28;20205;-62
2023/04/08 00:51:24;;;;;;;0.10;0.10;;;;;;;;;;5065944;28;20268;-62
2023/04/08 00:53:52;;;;;;;0.10;0.10;;;;;;;;;;5072405;28;20241;-63
2023/04/08 00:56:20;;;;;;;0.10;0.10;;;;;;;;;;5065202;28;20568;-63
2023/04/08 00:58:46;;;;;;;0.13;0.13;;;;;;;;;;5072976;28;20205;-63
2023/04/08 01:01:14;;;;;;;0.10;0.10;;;;;;;;;;5064300;28;20310;-63
2023/04/08 01:03:45;;;;;;;0.10;0.10;;;;;;;;;;5073531;28;20273;-63
2023/04/08 01:06:15;;;;;;;0.20;0.20;;;;;;;;;;5064492;28;20260;-63
2023/04/08 01:08:41;;;;;;;0.20;0.20;;;;;;;;;;5073045;28;20206;-63
2023/04/08 01:11:10;;;;;;;0.10;0.10;;;;;;;;;;5063996;28;20294;-63
2023/04/08 01:13:41;;;;;;;0.10;0.10;;;;;;;;;;5073677;28;20236;-63
2023/04/08 01:16:09;;;;;;;0.10;0.10;;;;;;;;;;5063710;28;20249;-63
2023/04/08 01:18:36;;;;;;;0.10;0.10;;;;;;;;;;5073884;28;20239;-63
2023/04/08 01:21:03;;;;;;;0.10;0.10;;;;;;;;;;5062939;28;20263;-63
2023/04/08 01:23:33;;;;;;;0.20;0.20;;;;;;;;;;5074160;28;20235;-63
2023/04/08 01:26:00;;;;;;;0.10;0.10;;;;;;;;;;5061976;28;20414;-63
2023/04/08 01:28:29;;;;;;;0.10;0.10;;;;;;;;;;5074405;28;20212;-63
2023/04/08 01:30:57;;;;;;;0.10;0.10;;;;;;;;;;5062069;28;20259;-63
2023/04/08 01:33:24;;;;;;;0.10;0.10;;;;;;;;;;5074931;28;20206;-63
2023/04/08 01:35:51;;;;;;;0.20;0.20;;;;;;;;;;5061083;28;20282;-63
2023/04/08 01:38:18;;;;;;;0.10;0.10;;;;;;;;;;5075827;28;20236;-63
2023/04/08 01:40:44;;;;;;;0.10;0.10;;;;;;;;;;5060227;28;20311;-63
2023/04/08 01:43:14;;;;;;;0.10;0.10;;;;;;;;;;5076596;28;20584;-63
2023/04/08 01:45:41;;;;;;;0.10;0.10;;;;;;;;;;5059856;28;20241;-63
2023/04/08 01:48:08;;;;;;;0.10;0.10;;;;;;;;;;5076959;28;20441;-63
2023/04/08 01:50:34;;;;;;;0.10;0.10;;;;;;;;;;5059056;28;20247;-63
2023/04/08 01:53:02;;;;;;;0.10;0.10;;;;;;;;;;5077531;28;20235;-63
2023/04/08 01:55:28;;;;;;;0.10;0.10;;;;;;;;;;5058315;28;20255;-63
2023/04/08 01:57:56;;;;;;;0.10;0.10;;;;;;;;;;5077979;28;20291;-63
2023/04/08 02:00:25;;;;;;;0.10;0.10;;;;;;;;;;5057347;28;20215;-63
2023/04/08 02:02:52;;;;;;;0.17;0.17;;;;;;;;;;5078882;28;20250;-63
2023/04/08 02:05:19;;;;;;;0.10;0.10;;;;;;;;;;5056727;28;20209;-63
2023/04/08 02:07:46;;;;;;;0.10;0.10;;;;;;;;;;5079481;28;20194;-63
2023/04/08 02:10:13;;;;;;;0.10;0.10;;;;;;;;;;5055975;28;20399;-63
2023/04/08 02:12:39;;;;;;;0.10;0.10;;;;;;;;;;5079819;28;20200;-62
2023/04/08 02:15:06;;;;;;;0.20;0.20;;;;;;;;;;5065254;28;20229;-63
2023/04/08 02:17:36;;;;;;;1.63;1.63;;;;;;;;;;5053691;28;20457;-63
2023/04/08 02:20:05;;;;;;;0.10;0.10;;;;;;;;;;5065322;28;20215;-63
2023/04/08 02:22:36;;;;;;;0.10;0.10;;;;;;;;;;5070165;28;20451;-63
2023/04/08 02:25:04;;;;;;;0.10;0.10;;;;;;;;;;5065360;28;20448;-63
2023/04/08 02:27:33;;;;;;;0.20;0.20;;;;;;;;;;5070193;28;20248;-63
2023/04/08 02:30:01;;;;;;;0.10;0.10;;;;;;;;;;5065170;28;20238;-63
2023/04/08 02:32:28;;;;;;;0.13;0.13;;;;;;;;;;5070047;28;20276;-63
2023/04/08 02:34:56;;;;;;;0.17;0.17;;;;;;;;;;5064928;28;20261;-63
2023/04/08 02:37:23;;;;;;;0.10;0.10;;;;;;;;;;5069317;28;20264;-63
2023/04/08 02:39:52;;;;;;;0.20;0.20;;;;;;;;;;5064955;28;20482;-63
2023/04/08 02:42:18;;;;;;;0.20;0.20;;;;;;;;;;5069825;28;20237;-63
2023/04/08 02:44:45;;;;;;;0.10;0.10;;;;;;;;;;5064623;28;20221;-63
2023/04/08 02:47:11;;;;;;;0.10;0.10;;;;;;;;;;5069859;28;20657;-63
2023/04/08 02:49:38;;;;;;;0.10;0.10;;;;;;;;;;5064753;28;20217;-63
2023/04/08 02:52:05;;;;;;;0.10;0.10;;;;;;;;;;5069341;28;20240;-63
2023/04/08 02:54:32;;;;;;;0.10;0.10;;;;;;;;;;5064665;28;20232;-63
2023/04/08 02:56:58;;;;;;;0.10;0.10;;;;;;;;;;5068307;28;20252;-63
2023/04/08 02:59:25;;;;;;;0.10;0.10;;;;;;;;;;5065459;28;20339;-63
2023/04/08 03:01:51;;;;;;;0.10;0.10;;;;;;;;;;5067494;28;20313;-63
2023/04/08 03:04:17;;;;;;;0.10;0.10;;;;;;;;;;5066432;28;20200;-63
2023/04/08 03:06:44;;;;;;;0.10;0.10;;;;;;;;;;5066326;28;20262;-63
2023/04/08 03:09:11;;;;;;;0.10;0.10;;;;;;;;;;5067034;28;20251;-63
2023/04/08 03:11:38;;;;;;;0.10;0.10;;;;;;;;;;5065572;28;20495;-63
2023/04/08 03:14:04;;;;;;;0.10;0.10;;;;;;;;;;5067920;28;20277;-63
2023/04/08 03:16:31;;;;;;;0.10;0.10;;;;;;;;;;5064476;28;20299;-63
2023/04/08 03:18:57;;;;;;;0.10;0.10;;;;;;;;;;5068744;28;20233;-63
2023/04/08 03:21:23;;;;;;;0.10;0.10;;;;;;;;;;5063583;28;20563;-63
2023/04/08 03:23:50;;;;;;;0.10;0.10;;;;;;;;;;5069685;28;20449;-63
2023/04/08 03:26:17;;;;;;;0.10;0.10;;;;;;;;;;5062481;28;20232;-63
2023/04/08 03:28:44;;;;;;;0.17;0.17;;;;;;;;;;5070083;28;20276;-63
2023/04/08 03:31:10;;;;;;;0.20;0.20;;;;;;;;;;5061693;28;20302;-63
2023/04/08 03:33:37;;;;;;;0.20;0.20;;;;;;;;;;5071142;28;20243;-63
2023/04/08 03:36:03;;;;;;;0.20;0.20;;;;;;;;;;5060447;28;20311;-64
2023/04/08 03:38:30;;;;;;;0.10;0.10;;;;;;;;;;5071779;28;20236;-63
2023/04/08 03:40:56;;;;;;;0.10;0.10;;;;;;;;;;5059839;28;20294;-63
2023/04/08 03:43:24;;;;;;;0.20;0.20;;;;;;;;;;5072505;28;20242;-63
2023/04/08 03:45:50;;;;;;;0.10;0.10;;;;;;;;;;5058940;28;20263;-63
2023/04/08 03:48:17;;;;;;;0.10;0.10;;;;;;;;;;5072956;28;20225;-63
2023/04/08 03:50:43;;;;;;;0.10;0.10;;;;;;;;;;5057939;28;20262;-63
2023/04/08 03:53:11;;;;;;;0.10;0.10;;;;;;;;;;5074226;28;20373;-63
2023/04/08 03:55:38;;;;;;;0.20;0.20;;;;;;;;;;5057328;28;20282;-63
2023/04/08 03:58:04;;;;;;;0.10;0.10;;;;;;;;;;5074620;28;20326;-63
2023/04/08 04:00:32;;;;;;;0.10;0.10;;;;;;;;;;5055880;28;20479;-63
2023/04/08 04:02:58;;;;;;;0.10;0.10;;;;;;;;;;5075930;28;20225;-62
2023/04/08 04:05:24;;;;;;;0.20;0.20;;;;;;;;;;5055113;28;20200;-63
2023/04/08 04:07:51;;;;;;;0.10;0.10;;;;;;;;;;5077050;28;20229;-63
2023/04/08 04:10:17;;;;;;;0.20;0.20;;;;;;;;;;5054687;28;20237;-63
2023/04/08 04:12:44;;;;;;;0.13;0.13;;;;;;;;;;5077580;28;20214;-63
2023/04/08 04:15:11;;;;;;;0.10;0.10;;;;;;;;;;5053722;28;20255;-63
2023/04/08 04:17:39;;;;;;;0.20;0.20;;;;;;;;;;5078454;28;20192;-63
2023/04/08 04:20:06;;;;;;;0.20;0.20;;;;;;;;;;5063538;28;20207;-63
2023/04/08 04:22:32;;;;;;;0.10;0.10;;;;;;;;;;5068554;28;20307;-63
2023/04/08 04:24:59;;;;;;;0.20;0.20;;;;;;;;;;5063468;28;20230;-64
2023/04/08 04:27:25;;;;;;;0.20;0.20;;;;;;;;;;5068748;28;20254;-62
2023/04/08 04:29:52;;;;;;;0.10;0.10;;;;;;;;;;5063416;28;20214;-62
2023/04/08 04:32:19;;;;;;;0.20;0.20;;;;;;;;;;5068361;28;20246;-62
2023/04/08 04:34:46;;;;;;;0.10;0.10;;;;;;;;;;5063386;28;20256;-63
2023/04/08 04:37:13;;;;;;;0.20;0.20;;;;;;;;;;5068393;28;20302;-63
2023/04/08 04:39:40;;;;;;;0.10;0.10;;;;;;;;;;5063420;28;20272;-63
2023/04/08 04:42:06;;;;;;;0.20;0.20;;;;;;;;;;5068212;28;20450;-63
2023/04/08 04:44:32;;;;;;;0.10;0.10;;;;;;;;;;5063122;28;20233;-63
2023/04/08 04:46:59;;;;;;;0.10;0.10;;;;;;;;;;5067282;28;20572;-63
2023/04/08 04:49:25;;;;;;;0.10;0.10;;;;;;;;;;5063925;28;20459;-63
2023/04/08 04:51:53;;;;;;;0.20;0.20;;;;;;;;;;5066313;28;20256;-63
2023/04/08 04:54:19;;;;;;;0.20;0.20;;;;;;;;;;5064926;28;20208;-63
2023/04/08 04:56:46;;;;;;;0.10;0.10;;;;;;;;;;5065385;28;20528;-63
2023/04/08 04:59:12;;;;;;;0.20;0.20;;;;;;;;;;5065852;28;20204;-63
2023/04/08 05:01:39;;;;;;;0.20;0.20;;;;;;;;;;5066369;28;20260;-63
2023/04/08 05:04:06;;;;;;;0.10;0.10;;;;;;;;;;5070168;28;20370;-65
2023/04/08 05:06:32;;;;;;;0.20;0.20;;;;;;;;;;5067179;28;20239;-63
2023/04/08 05:09:00;;;;;;;0.10;0.10;;;;;;;;;;5070802;28;20204;-63
2023/04/08 05:11:26;;;;;;;0.10;0.10;;;;;;;;;;5066302;28;20246;-63
2023/04/08 05:13:53;;;;;;;0.10;0.10;;;;;;;;;;5071355;28;20234;-63
2023/04/08 05:16:19;;;;;;;0.10;0.10;;;;;;;;;;5065116;28;20267;-64
2023/04/08 05:18:46;;;;;;;0.10;0.10;;;;;;;;;;5072520;28;20252;-63
2023/04/08 05:21:12;;;;;;;0.13;0.13;;;;;;;;;;5064244;28;20261;-63
2023/04/08 05:23:38;;;;;;;0.20;0.20;;;;;;;;;;5073350;28;20434;-63
2023/04/08 05:26:08;;;;;;;0.20;0.20;;;;;;;;;;5063297;28;20235;-63
2023/04/08 05:28:37;;;;;;;0.10;0.10;;;;;;;;;;5073797;28;20389;-64
2023/04/08 05:31:03;;;;;;;0.10;0.10;;;;;;;;;;5063052;28;20240;-63
2023/04/08 05:33:30;;;;;;;0.20;0.20;;;;;;;;;;5074252;28;20266;-63
2023/04/08 05:35:56;;;;;;;0.10;0.10;;;;;;;;;;5061946;28;20259;-64
2023/04/08 05:38:22;;;;;;;0.20;0.20;;;;;;;;;;5074817;28;20205;-64
2023/04/08 05:40:49;;;;;;;0.20;0.20;;;;;;;;;;5060879;28;20262;-64
2023/04/08 05:43:20;;;;;;;0.10;0.10;;;;;;;;;;5076005;28;20211;-63
2023/04/08 05:45:46;;;;;;;0.10;0.10;;;;;;;;;;5060488;28;20510;-64
2023/04/08 05:48:12;;;;;;;0.10;0.10;;;;;;;;;;5076234;28;20451;-64
2023/04/08 05:50:39;;;;;;;0.20;0.20;;;;;;;;;;5059758;28;20315;-64
2023/04/08 05:53:05;;;;;;;0.20;0.20;;;;;;;;;;5077249;28;20250;-63
2023/04/08 05:55:31;;;;;;;0.20;0.20;;;;;;;;;;5058546;28;20290;-64
2023/04/08 05:57:58;;;;;;;0.10;0.10;;;;;;;;;;5077768;28;20300;-63
2023/04/08 06:00:25;;;;;;;0.10;0.10;;;;;;;;;;5057232;28;20215;-63
2023/04/08 06:02:52;;;;;;;0.10;0.10;;;;;;;;;;5079064;28;20193;-63
2023/04/08 06:05:19;;;;;;;0.20;0.20;;;;;;;;;;5056798;28;20201;-64
2023/04/08 06:07:45;;;;;;;0.20;0.20;;;;;;;;;;5079507;28;20429;-63
2023/04/08 06:10:11;;;;;;;0.17;0.17;;;;;;;;;;5055930;28;20233;-64
2023/04/08 06:12:38;;;;;;;0.10;0.10;;;;;;;;;;5080207;28;20224;-63
2023/04/08 06:15:05;;;;;;;0.10;0.10;;;;;;;;;;5065481;28;20206;-63
2023/04/08 06:17:33;;;;;;;0.20;0.20;;;;;;;;;;5070338;28;20248;-63
2023/04/08 06:20:00;;;;;;;0.10;0.10;;;;;;;;;;5065387;28;20207;-63
2023/04/08 06:22:27;;;;;;;0.20;0.20;;;;;;;;;;5070369;28;20339;-63
2023/04/08 06:24:53;;;;;;;0.20;0.20;;;;;;;;;;5065338;28;20206;-63
2023/04/08 06:27:20;;;;;;;0.10;0.10;;;;;;;;;;5070275;28;20311;-64
2023/04/08 06:29:47;;;;;;;0.17;0.17;;;;;;;;;;5065163;28;20209;-63
2023/04/08 06:32:13;;;;;;;0.10;0.10;;;;;;;;;;5070147;28;20243;-64
2023/04/08 06:34:41;;;;;;;0.20;0.20;;;;;;;;;;5065594;28;20397;-63
2023/04/08 06:37:08;;;;;;;0.10;0.10;;;;;;;;;;5070201;28;20655;-64
2023/04/08 06:39:34;;;;;;;0.20;0.20;;;;;;;;;;5065070;28;20247;-63
2023/04/08 06:42:01;;;;;;;0.20;0.20;;;;;;;;;;5069123;28;20310;-63
2023/04/08 06:44:27;;;;;;;0.17;0.17;;;;;;;;;;5065362;28;20210;-64
2023/04/08 06:46:53;;;;;;;0.20;0.20;;;;;;;;;;5068086;28;20281;-63
2023/04/08 06:49:20;;;;;;;0.20;0.20;;;;;;;;;;5066228;28;20205;-64
2023/04/08 06:51:48;;;;;;;0.10;0.10;;;;;;;;;;5066893;28;20250;-63
2023/04/08 06:54:14;;;;;;;0.10;0.10;;;;;;;;;;5066964;28;20243;-63
2023/04/08 06:56:41;;;;;;;0.10;0.10;;;;;;;;;;5065994;28;20252;-63
2023/04/08 06:59:07;;;;;;;0.10;0.10;;;;;;;;;;5067718;28;20271;-64
2023/04/08 07:01:34;;;;;;;0.10;0.10;;;;;;;;;;5066537;28;20239;-63
2023/04/08 07:04:01;;;;;;;0.10;0.10;;;;;;;;;;5068790;28;20281;-66
2023/04/08 07:06:27;;;;;;;0.10;0.10;;;;;;;;;;5064504;28;20318;-66
2023/04/08 07:08:55;;;;;;;0.20;0.20;;;;;;;;;;5069397;28;20237;-65
2023/04/08 07:11:21;;;;;;;0.10;0.10;;;;;;;;;;5063433;28;20302;-64
2023/04/08 07:13:47;;;;;;;0.10;0.10;;;;;;;;;;5070010;28;20283;-64
2023/04/08 07:16:14;;;;;;;0.10;0.10;;;;;;;;;;5062317;28;20252;-64
2023/04/08 07:18:41;;;;;;;0.10;0.10;;;;;;;;;;5071147;28;20212;-64
2023/04/08 07:21:07;;;;;;;0.10;0.10;;;;;;;;;;5061262;28;20497;-65
2023/04/08 07:23:34;;;;;;;0.20;0.20;;;;;;;;;;5071344;28;20212;-62
2023/04/08 07:26:04;;;;;;;0.10;0.10;;;;;;;;;;5060490;28;20312;-63
2023/04/08 07:28:30;;;;;;;0.10;0.10;;;;;;;;;;5072420;28;20207;-64
2023/04/08 07:30:57;;;;;;;0.10;0.10;;;;;;;;;;5064063;28;20240;-70
2023/04/08 07:33:23;;;;;;;0.20;0.20;;;;;;;;;;5073041;28;20218;-70
2023/04/08 07:35:49;;;;;;;0.20;0.20;;;;;;;;;;5058895;28;20258;-70
2023/04/08 07:38:16;;;;;;;0.20;0.20;;;;;;;;;;5073677;28;20238;-70
2023/04/08 07:40:42;;;;;;;0.20;0.20;;;;;;;;;;5058281;28;20243;-71
2023/04/08 07:43:10;;;;;;;0.17;0.17;;;;;;;;;;5074901;28;20282;-70
2023/04/08 07:45:36;;;;;;;0.10;0.10;;;;;;;;;;5056969;28;20242;-70
2023/04/08 07:48:02;;;;;;;0.10;0.10;;;;;;;;;;5075650;28;20193;-70
2023/04/08 07:50:29;;;;;;;0.20;0.20;;;;;;;;;;5056529;28;20257;-70
2023/04/08 07:52:55;;;;;;;0.10;0.10;;;;;;;;;;5076605;28;20199;-71
2023/04/08 07:55:22;;;;;;;0.10;0.10;;;;;;;;;;5055469;28;20278;-69
2023/04/08 07:57:48;;;;;;;0.20;0.20;;;;;;;;;;5077277;28;20287;-69
2023/04/08 08:00:20;;;;;;;0.10;0.10;;;;;;;;;;5063371;28;20224;-69
2023/04/08 08:02:46;;;;;;;0.20;0.20;;;;;;;;;;5052186;28;20217;-69
2023/04/08 08:05:13;;;;;;;0.10;0.10;;;;;;;;;;5054068;28;20207;-68
2023/04/08 08:07:39;;;;;;;0.10;0.10;;;;;;;;;;5078532;28;20235;-69
2023/04/08 08:10:06;;;;;;;0.10;0.10;;;;;;;;;;5063626;28;20235;-69
2023/04/08 08:12:32;;;;;;;0.10;0.10;;;;;;;;;;5068759;28;20308;-69
2023/04/08 08:14:59;;;;;;;0.10;0.10;;;;;;;;;;5063718;28;20211;-69
2023/04/08 08:17:29;;;;;;;0.10;0.10;;;;;;;;;;5068614;28;20243;-69
2023/04/08 08:19:55;;;;;;;0.10;0.10;;;;;;;;;;5063735;28;20388;-70
2023/04/08 08:22:22;;;;;;;0.10;0.10;;;;;;;;;;5068640;28;20240;-69
2023/04/08 08:24:48;;;;;;;0.10;0.10;;;;;;;;;;5063505;28;20244;-69
2023/04/08 08:27:14;;;;;;;0.10;0.10;;;;;;;;;;5068594;28;20252;-69
2023/04/08 08:29:41;;;;;;;0.10;0.10;;;;;;;;;;5063566;28;20205;-69
2023/04/08 08:32:07;;;;;;;0.10;0.10;;;;;;;;;;5067533;28;20257;-70
2023/04/08 08:34:35;;;;;;;0.10;0.10;;;;;;;;;;5063843;28;20276;-68
2023/04/08 08:37:01;;;;;;;0.10;0.10;;;;;;;;;;5069520;28;20275;-68
2023/04/08 08:39:28;;;;;;;0.10;0.10;;;;;;;;;;5068731;28;20249;-69
2023/04/08 08:41:55;;;;;;;0.10;0.10;;;;;;;;;;5069975;28;20239;-69
2023/04/08 08:44:21;;;;;;;0.10;0.10;;;;;;;;;;5069169;28;20204;-69
2023/04/08 08:46:48;;;;;;;0.10;0.10;;;;;;;;;;5069540;28;20294;-69
2023/04/08 08:49:14;;;;;;;0.10;0.10;;;;;;;;;;5069342;28;20273;-69
2023/04/08 08:51:45;;;;;;;0.17;0.17;;;;;;;;;;5068750;28;20246;-69
2023/04/08 08:54:12;;;;;;;0.10;0.10;;;;;;;;;;5069618;28;20283;-69
2023/04/08 08:56:38;;;;;;;0.10;0.10;;;;;;;;;;5068076;28;20492;-69
2023/04/08 08:59:05;;;;;;;0.10;0.10;;;;;;;;;;5070389;28;20206;-69
2023/04/08 09:01:36;;;;;;;0.10;0.10;;;;;;;;;;5067186;28;20237;-69
2023/04/08 09:04:15;;;;;;;0.10;0.10;;;;;;;;;;5070779;28;20214;-69
2023/04/08 09:06:43;;;;;;;0.10;0.10;;;;;;;;;;5068357;28;20270;-69
2023/04/08 09:09:12;;;;;;;0.10;0.10;;;;;;;;;;5069678;28;20215;-69
2023/04/08 09:11:39;;;;;;;0.10;0.10;;;;;;;;;;5068008;28;20301;-69
2023/04/08 09:14:06;;;;;;;0.10;0.10;;;;;;;;;;5070134;28;20482;-69
2023/04/08 09:16:33;;;;;;;0.10;0.10;;;;;;;;;;5067253;28;20231;-69
2023/04/08 09:19:08;;;;;;;0.10;0.10;;;;;;;;;;5070672;28;20242;-69
2023/04/08 09:21:35;;;;;;;0.10;0.10;;;;;;;;;;5067401;28;20305;-69
2023/04/08 09:24:02;;;;;;;0.10;0.10;;;;;;;;;;5070553;28;20519;-69
2023/04/08 09:26:29;;;;;;;0.10;0.10;;;;;;;;;;5066567;28;20306;-69
2023/04/08 09:28:59;;;;;;;0.10;0.10;;;;;;;;;;5071184;28;20246;-69
2023/04/08 09:31:27;;;;;;;0.10;0.10;;;;;;;;;;5065984;28;20239;-69
2023/04/08 09:33:54;;;;;;;0.10;0.10;;;;;;;;;;5071410;28;20274;-69
2023/04/08 09:36:20;;;;;;;0.10;0.10;;;;;;;;;;5065167;28;20254;-69
2023/04/08 09:38:46;;;;;;;0.10;0.10;;;;;;;;;;5071976;28;20243;-69
2023/04/08 09:41:15;;;;;;;0.10;0.10;;;;;;;;;;5064268;28;20461;-69
2023/04/08 09:43:47;;;;;;;0.10;0.10;;;;;;;;;;5072676;28;20208;-69
2023/04/08 09:46:14;;;;;;;0.10;0.10;;;;;;;;;;5063497;28;20239;-69
2023/04/08 09:48:42;;;;;;;0.10;0.10;;;;;;;;;;5072600;28;20242;-69
2023/04/08 09:51:12;;;;;;;0.10;0.10;;;;;;;;;;5063472;28;20571;-69
2023/04/08 09:53:41;;;;;;;0.10;0.10;;;;;;;;;;5072533;28;20239;-69
2023/04/08 09:56:09;;;;;;;0.10;0.10;;;;;;;;;;5063117;28;20489;-69
2023/04/08 09:58:41;;;;;;;0.10;0.10;;;;;;;;;;5073154;28;20276;-69
2023/04/08 10:01:09;;;;;;;0.10;0.10;;;;;;;;;;5063205;28;20266;-69
2023/04/08 10:03:36;;;;;;;0.10;0.10;;;;;;;;;;5073096;28;20535;-69
2023/04/08 10:06:03;;;;;;;0.10;0.10;;;;;;;;;;5062540;28;20301;-69
2023/04/08 10:08:31;;;;;;;0.10;0.10;;;;;;;;;;5073716;28;20428;-69
2023/04/08 10:10:58;;;;;;;0.10;0.10;;;;;;;;;;5061469;28;20239;-69
2023/04/08 10:13:27;;;;;;;0.10;0.10;;;;;;;;;;5074218;28;20211;-69
2023/04/08 10:16:14;;;;;;;0.10;0.10;;;;;;;;;;5060926;28;20243;-69
2023/04/08 10:18:41;;;;;;;0.10;0.10;;;;;;;;;;5071690;28;20234;-69
2023/04/08 10:21:30;;;;;;;0.10;0.10;;;;;;;;;;5062537;28;20241;-69
2023/04/08 10:23:59;;;;;;;0.10;0.10;;;;;;;;;;5069735;28;20231;-69
2023/04/08 10:26:33;;;;;;;0.10;0.10;;;;;;;;;;5064770;28;20246;-69
2023/04/08 10:29:34;;;;;;;0.10;0.10;;;;;;;;;;5069106;28;20204;-69
2023/04/08 10:32:02;;;;;;;0.10;0.10;;;;;;;;;;5013187;28;20240;-69
2023/04/08 10:34:29;;;;;;;0.10;0.10;;;;;;;;;;5023196;28;20237;-69
2023/04/08 10:36:57;;;;;;;0.10;0.10;;;;;;;;;;5040363;28;20239;-69
2023/04/08 10:39:24;;;;;;;0.10;0.10;;;;;;;;;;5066154;28;20227;-69
2023/04/08 10:41:51;;;;;;;0.10;0.10;;;;;;;;;;5067742;28;20285;-69
2023/04/08 10:44:18;;;;;;;0.10;0.10;;;;;;;;;;5066829;28;20204;-69
2023/04/08 10:46:44;;;;;;;0.10;0.10;;;;;;;;;;5066674;28;20239;-69
2023/04/08 10:49:12;;;;;;;0.10;0.10;;;;;;;;;;5067283;28;20208;-69
2023/04/08 10:51:40;;;;;;;0.10;0.10;;;;;;;;;;5065955;28;20525;-69
2023/04/08 10:54:07;;;;;;;0.10;0.10;;;;;;;;;;5068100;28;20281;-70
2023/04/08 10:56:35;;;;;;;0.10;0.10;;;;;;;;;;5065280;28;20292;-69
2023/04/08 10:59:02;;;;;;;0.10;0.10;;;;;;;;;;5067332;28;20211;-69
2023/04/08 11:01:37;;;;;;;0.10;0.10;;;;;;;;;;5064279;28;20239;-69
2023/04/08 11:04:06;;;;;;;0.10;0.10;;;;;;;;;;5068293;28;20231;-69
2023/04/08 11:06:36;;;;;;;0.10;0.10;;;;;;;;;;5064903;28;20255;-69
2023/04/08 11:09:03;;;;;;;0.10;0.10;;;;;;;;;;5068125;28;20275;-69
2023/04/08 11:11:30;;;;;;;0.10;0.10;;;;;;;;;;5064303;28;20284;-69
2023/04/08 11:13:56;;;;;;;0.10;0.10;;;;;;;;;;5068823;28;20208;-69
2023/04/08 11:16:24;;;;;;;0.10;0.10;;;;;;;;;;5063583;28;20243;-69
2023/04/08 11:18:51;;;;;;;0.10;0.10;;;;;;;;;;5069432;28;20204;-69
2023/04/08 11:21:17;;;;;;;0.10;0.10;;;;;;;;;;5062811;28;20234;-69
2023/04/08 11:23:45;;;;;;;0.10;0.10;;;;;;;;;;5070492;28;20231;-69
2023/04/08 11:26:11;;;;;;;0.10;0.10;;;;;;;;;;5061771;28;20250;-69
2023/04/08 11:28:39;;;;;;;0.10;0.10;;;;;;;;;;5071197;28;21009;-69
2023/04/08 11:31:07;;;;;;;0.10;0.10;;;;;;;;;;5061181;28;20239;-69
2023/04/08 11:33:35;;;;;;;0.10;0.10;;;;;;;;;;5071636;28;20383;-69
2023/04/08 11:36:03;;;;;;;0.10;0.10;;;;;;;;;;5060556;28;20461;-69
2023/04/08 11:38:29;;;;;;;0.10;0.10;;;;;;;;;;5071769;28;20224;-69
2023/04/08 11:40:57;;;;;;;0.10;0.10;;;;;;;;;;5059505;28;20270;-69
2023/04/08 11:43:25;;;;;;;0.10;0.10;;;;;;;;;;5072692;28;20243;-69
2023/04/08 11:45:51;;;;;;;0.10;0.10;;;;;;;;;;5059035;28;20579;-69
2023/04/08 11:48:17;;;;;;;0.10;0.10;;;;;;;;;;5073541;28;20207;-69
2023/04/08 11:50:45;;;;;;;0.10;0.10;;;;;;;;;;5058124;28;20239;-69
2023/04/08 11:53:18;;;;;;;0.10;0.10;;;;;;;;;;5074087;28;20279;-69
2023/04/08 11:55:45;;;;;;;0.10;0.10;;;;;;;;;;5057764;28;20259;-69
2023/04/08 11:58:13;;;;;;;0.10;0.10;;;;;;;;;;5073963;28;20228;-69
2023/04/08 12:00:39;;;;;;;0.10;0.10;;;;;;;;;;5057212;28;20440;-69
2023/04/08 12:03:06;;;;;;;0.10;0.10;;;;;;;;;;5075141;28;20205;-70
2023/04/08 12:05:32;;;;;;;0.10;0.10;;;;;;;;;;5056644;28;20241;-68
2023/04/08 12:07:58;;;;;;;0.10;0.10;;;;;;;;;;5075947;28;20267;-67
2023/04/08 12:10:28;;;;;;;0.10;0.10;;;;;;;;;;5057087;28;20241;-68
2023/04/08 12:12:54;;;;;;;0.10;0.10;;;;;;;;;;5080252;28;20192;-68
2023/04/08 12:15:22;;;;;;;0.10;0.10;;;;;;;;;;5059230;28;20622;-68
2023/04/08 12:17:48;;;;;;;0.10;0.10;;;;;;;;;;5081259;28;20245;-68
2023/04/08 12:20:16;;;;;;;0.10;0.10;;;;;;;;;;5060796;28;20243;-68
2023/04/08 12:22:42;;;;;;;0.10;0.10;;;;;;;;;;5082401;28;20258;-68
2023/04/08 12:25:09;;;;;;;0.10;0.10;;;;;;;;;;5067544;28;20423;-68
2023/04/08 12:27:35;;;;;;;0.10;0.10;;;;;;;;;;5072514;28;20235;-68
2023/04/08 12:30:02;;;;;;;0.00;0.00;;;;;;;;;;5067548;28;20239;-68
2023/04/08 12:32:30;;;;;;;0.10;0.10;;;;;;;;;;5072388;28;20303;-68
2023/04/08 12:34:56;;;;;;;0.10;0.10;;;;;;;;;;5067406;28;20455;-68
2023/04/08 12:37:22;;;;;;;0.10;0.10;;;;;;;;;;5072270;28;20326;-68
2023/04/08 12:39:49;;;;;;;0.10;0.10;;;;;;;;;;5067304;28;20213;-68
2023/04/08 12:42:15;;;;;;;0.10;0.10;;;;;;;;;;5072215;28;20466;-68
2023/04/08 12:44:41;;;;;;;0.10;0.10;;;;;;;;;;5066988;28;20260;-68
2023/04/08 12:47:08;;;;;;;0.10;0.10;;;;;;;;;;5071404;28;20308;-68
2023/04/08 12:49:35;;;;;;;0.10;0.10;;;;;;;;;;5067724;28;20278;-68
2023/04/08 12:52:02;;;;;;;0.10;0.10;;;;;;;;;;5070708;28;20267;-68
2023/04/08 12:54:30;;;;;;;0.10;0.10;;;;;;;;;;5068103;28;20296;-68
2023/04/08 12:56:56;;;;;;;0.10;0.10;;;;;;;;;;5069893;28;20242;-68
2023/04/08 12:59:23;;;;;;;0.10;0.10;;;;;;;;;;5068707;28;20206;-68
2023/04/08 13:01:49;;;;;;;0.10;0.10;;;;;;;;;;5068399;28;20308;-68
2023/04/08 13:04:15;;;;;;;0.10;0.10;;;;;;;;;;5069826;28;20237;-68
2023/04/08 13:06:43;;;;;;;0.10;0.10;;;;;;;;;;5068009;28;20434;-68
2023/04/08 13:09:10;;;;;;;0.10;0.10;;;;;;;;;;5070096;28;20234;-68
2023/04/08 13:11:36;;;;;;;0.10;0.10;;;;;;;;;;5067127;28;20268;-68
2023/04/08 13:14:02;;;;;;;0.10;0.10;;;;;;;;;;5071003;28;20373;-68
2023/04/08 13:16:29;;;;;;;0.10;0.10;;;;;;;;;;5066087;28;20477;-68
2023/04/08 13:18:55;;;;;;;0.10;0.10;;;;;;;;;;5071794;28;20230;-68
2023/04/08 13:21:22;;;;;;;0.10;0.10;;;;;;;;;;5064616;28;20241;-68
2023/04/08 13:23:49;;;;;;;0.10;0.10;;;;;;;;;;5072086;28;20198;-68
2023/04/08 13:26:16;;;;;;;0.10;0.10;;;;;;;;;;5064694;28;20672;-68
2023/04/08 13:28:42;;;;;;;0.10;0.10;;;;;;;;;;5072814;28;20269;-68
2023/04/08 13:31:08;;;;;;;0.10;0.10;;;;;;;;;;5063737;28;20250;-67
2023/04/08 13:33:35;;;;;;;0.10;0.10;;;;;;;;;;5073652;28;20205;-67
2023/04/08 13:36:01;;;;;;;0.10;0.10;;;;;;;;;;5062836;28;20256;-68
2023/04/08 13:38:27;;;;;;;0.10;0.10;;;;;;;;;;5074345;28;20287;-68
2023/04/08 13:40:55;;;;;;;0.10;0.10;;;;;;;;;;5061494;28;20251;-68
2023/04/08 13:43:22;;;;;;;0.10;0.10;;;;;;;;;;5075215;28;20372;-68
2023/04/08 13:45:48;;;;;;;0.10;0.10;;;;;;;;;;5060895;28;20286;-68
2023/04/08 13:48:15;;;;;;;0.10;0.10;;;;;;;;;;5075623;28;20229;-68
2023/04/08 13:50:42;;;;;;;0.10;0.10;;;;;;;;;;5059703;28;20285;-68
2023/04/08 13:53:08;;;;;;;0.10;0.10;;;;;;;;;;5076472;28;20214;-68
2023/04/08 13:55:35;;;;;;;0.10;0.10;;;;;;;;;;5059234;28;20587;-68
2023/04/08 13:58:02;;;;;;;0.10;0.10;;;;;;;;;;5077466;28;20452;-68
2023/04/08 14:00:30;;;;;;;0.10;0.10;;;;;;;;;;5058293;28;20275;-68
2023/04/08 14:02:56;;;;;;;0.10;0.10;;;;;;;;;;5078259;28;20432;-68
2023/04/08 14:05:22;;;;;;;0.10;0.10;;;;;;;;;;5056846;28;20211;-68
2023/04/08 14:07:49;;;;;;;0.10;0.10;;;;;;;;;;5079054;28;20196;-68
2023/04/08 14:10:16;;;;;;;0.10;0.10;;;;;;;;;;5056395;28;20207;-68
2023/04/08 14:12:42;;;;;;;0.10;0.10;;;;;;;;;;5079486;28;20201;-68
2023/04/08 14:15:10;;;;;;;0.10;0.10;;;;;;;;;;5058140;28;20298;-68
2023/04/08 14:17:37;;;;;;;0.10;0.10;;;;;;;;;;5080442;28;20255;-68
2023/04/08 14:20:04;;;;;;;0.10;0.10;;;;;;;;;;5065449;28;20247;-67
2023/04/08 14:22:30;;;;;;;0.10;0.10;;;;;;;;;;5070369;28;20244;-68
2023/04/08 14:24:57;;;;;;;0.10;0.10;;;;;;;;;;5065286;28;20213;-68
2023/04/08 14:27:23;;;;;;;0.10;0.10;;;;;;;;;;5070168;28;20304;-68
2023/04/08 14:29:49;;;;;;;0.10;0.10;;;;;;;;;;5065137;28;20207;-68
2023/04/08 14:32:17;;;;;;;0.10;0.10;;;;;;;;;;5070078;28;20267;-68
2023/04/08 14:34:43;;;;;;;0.10;0.10;;;;;;;;;;5064856;28;20204;-68
2023/04/08 14:37:11;;;;;;;0.10;0.10;;;;;;;;;;5070108;28;20262;-68
2023/04/08 14:39:37;;;;;;;0.10;0.10;;;;;;;;;;5064796;28;20242;-68
2023/04/08 14:42:03;;;;;;;0.10;0.10;;;;;;;;;;5069424;28;20306;-68